Terminal Aerodrome Forecast
Issued by NWS

Home | Current Version | Previous Version | Text Only | Print | Product List | Glossary Off
Versions: 1 2 3 4 5 6 7 8 9 10 11 12 13 14 15 16 17 18 19 20 21 22 23 24 25 26 27 28 29 30 31 32 33 34 35 36 37 38 39 40 41
000 FTUS41 KBOX 222336 TAFHYA TAF KHYA 222336Z 2300/2324 22012KT P6SM SCT250 FM231000 22008KT 5SM BR SCT250 FM231200 22011KT P6SM SCT250 FM231800 21016G25KT P6SM SCT040 BKN250=

USA.gov is the U.S. government's official web portal to all federal, state and local government web resources and services.